الصفحة الرئيسية
METAR-TAF:

METAR-TAF

مطار :

Montrose Regional Airport

Montrose, كولورادو, الولايات المتحدة

دائرة عرض: 38-30-18N, خط طول: 107-53-51W, ارتفاع: 1755 متر

مراقبة الطقس الحالي

تاريخ ووقت الإصدار 34 دقيقة قبل الساعة 21:53UTC
ريح 4 عقدةمن اتجاهات متغيرة
درجة الحرارة 7°درجة مئوية
الرطوبة 31%
ضغط 1026 hPa
الرؤية: 16.1 كم
سماء صافية

METAR: KMTJ 152153Z AUTO VRB04KT 10SM CLR 07/M09 A3031 RMK AO2 SLP259 T00671094

زمن: 16:27 (22:27 UTC)

توقعات

تاريخ ووقت الإصدار 5ساعات و 7 دقيقة قبل الساعة 17:20UTC
التوقعات صالحة من15 الساعة 18 UTC إلى 16 الساعة 18 UTC
ريح 6 عقدة من الشمال
الرؤية: 10 كم
سماء صافية
من 16 الساعة 0300 UTC
ريح 5 عقدة من الجنوب الشرقي
الرؤية: 10 كم
سماء صافية
من 16 الساعة 1700 UTC
ريح 2 عقدة من الشمال
الرؤية: 10 كم
سماء صافية

TAF: KMTJ 151720Z 1518/1618 35006KT P6SM SKC FM160300 13005KT P6SM SKC FM161700 01002KT P6SM SKC

أرصاد الطقس والتوقعات من أكثر من 4000 مطار (تقارير الطقس للمطار METAR والتنبؤ بالطقس بالمطارTAF).

المحطات المتاحة هي النقط الصفراء والحمراء على الخريطة.

حرك المؤشر فوق النقطة لمعرفة اسم المحطة.

ثم انقر لمعرفة أرصاد وتوقعات الطقس.

لتغيير الخارطة: اضغط على الأزرار الخضراء مع رمز الصليب الأسود للتكبير. على الزر الأخضر مع شرطة للتصغير، أو على الأسهم الخضراء للخرائط المجاورة.


METAR-TAF: